Buoy 44906

sailwx.info

Track history (hours):
 
Tides and Currents Weather Stations Pressure Air Temp Water Temp Dewpoint Dewpoint Depression Visibility Wind Speed Wind Dir Waves Ship Positions

Drifting buoy 44906

Last reported at 2017-Mar-29 01:00 UTC. Time now 2017-Mar-29 05:13 UTC.
Position N 37°02' W 033°20'.

Water temperature 16.9 ° C

Date/timePositionNaut miles runAvg speedWind from/ knotsBaromVisibWave heightAir tempDewpointWater temp
2017-Mar-29 01:00N 37°02' W 033°20'0 0.0 16.9
2017-Mar-29 00:00N 37°02' W 033°20'1 0.3 17.0
2017-Mar-28 22:00N 37°01' W 033°20'1 1.1 17.0
2017-Mar-28 21:00N 37°01' W 033°19'0 0.0 17.0
2017-Mar-28 20:00N 37°01' W 033°19'2 2.5 16.9
2017-Mar-28 19:00N 37°01' W 033°16'0 0.0 16.9
2017-Mar-28 17:00N 37°01' W 033°16'1 1.4 17.0
2017-Mar-28 16:00N 37°01' W 033°17'0 0.0 17.0
2017-Mar-28 15:00N 37°01' W 033°17'1 1.3 17.0
2017-Mar-28 14:00N 37°02' W 033°17'0 0.0 17.0
2017-Mar-28 13:00N 37°02' W 033°17'1 1.0 17.0
2017-Mar-28 12:00N 37°02' W 033°18'1 0.8 17.0
2017-Mar-28 11:00N 37°03' W 033°17'0 0.0 17.0
2017-Mar-28 10:00N 37°03' W 033°17'0 0.0 17.0
2017-Mar-28 09:00N 37°03' W 033°17'0 0.0 17.0
2017-Mar-28 08:00N 37°03' W 033°17'1 1.4 17.0
2017-Mar-28 07:00N 37°03' W 033°19'0 0.0 17.1
2017-Mar-28 06:00N 37°03' W 033°19'0 0.0 17.1
2017-Mar-28 05:00N 37°03' W 033°19'0 0.0 17.1
2017-Mar-28 04:00N 37°03' W 033°19'0 0.0 17.1
2017-Mar-27 23:00N 37°03' W 033°19'1 1.1 17.2
2017-Mar-27 22:00N 37°04' W 033°18'0 0.0 17.2
2017-Mar-27 21:00N 37°04' W 033°18'1 1.1 17.2
2017-Mar-27 20:00N 37°04' W 033°17'1 0.6 17.2
2017-Mar-27 19:00N 37°05' W 033°17'0 0.0 17.2
2017-Mar-27 17:00N 37°05' W 033°17'0 0.0 17.2
2017-Mar-27 16:00N 37°05' W 033°17'1 1.3 17.3
2017-Mar-27 15:00N 37°06' W 033°17'0 0.0 17.3
2017-Mar-27 14:00N 37°06' W 033°17'0 0.0 17.3
2017-Mar-27 13:00N 37°06' W 033°17'0 0.0 17.3
2017-Mar-27 12:00N 37°06' W 033°17'0 0.5 17.2
2017-Mar-27 11:00N 37°06' W 033°17'0 0.0 17.2
2017-Mar-27 10:00N 37°06' W 033°17'0 0.5 17.2
2017-Mar-27 09:00N 37°06' W 033°17'1 1.4 17.2
2017-Mar-27 08:00N 37°06' W 033°16'1 1.1 17.2
2017-Mar-27 07:00N 37°07' W 033°14'0 0.5 17.2
2017-Mar-27 06:00N 37°07' W 033°14'0 0.0 17.3
2017-Mar-27 05:00N 37°07' W 033°14'2 2.3 17.3
2017-Mar-27 04:00N 37°08' W 033°16'0 0.1 17.3
2017-Mar-27 00:00N 37°08' W 033°15'1 1.4 17.3
2017-Mar-26 23:00N 37°08' W 033°13'1 0.8 17.4
2017-Mar-26 22:00N 37°08' W 033°14'0 0.5 17.4
2017-Mar-26 21:00N 37°08' W 033°13'1 1.1 17.4
2017-Mar-26 20:00N 37°08' W 033°12'1 0.8 17.4
2017-Mar-26 19:00N 37°09' W 033°13'1 1.1 17.5
2017-Mar-26 18:00N 37°10' W 033°11'1 1.0 17.6
2017-Mar-26 17:00N 37°10' W 033°13'0 0.0 17.6
2017-Mar-26 15:00N 37°10' W 033°13'2 0.9 17.4
2017-Mar-26 13:00N 37°11' W 033°12'0 0.0 17.3
2017-Mar-26 12:00N 37°11' W 033°12'1 0.8 17.3
2017-Mar-26 11:00N 37°11' W 033°11'0 0.0 17.3
2017-Mar-26 10:00N 37°11' W 033°11'1 1.4 17.3
2017-Mar-26 09:00N 37°11' W 033°10'0 0.0 17.3
2017-Mar-26 08:00N 37°11' W 033°10'2 1.9 17.3
2017-Mar-26 07:00N 37°12' W 033°08'0 0.0 17.3
2017-Mar-26 06:00N 37°12' W 033°08'1 1.3 17.3
2017-Mar-26 05:00N 37°13' W 033°07'4 3.7 17.4
2017-Mar-26 04:00N 37°17' W 033°08'0 0.0 17.4
2017-Mar-26 00:00N 37°17' W 033°08'1 1.1 17.6
2017-Mar-25 23:00N 37°17' W 033°10'0 0.0 17.6
2017-Mar-25 22:00N 37°17' W 033°10'0 0.0 17.6
2017-Mar-25 21:00N 37°17' W 033°10'1 0.6 17.6
2017-Mar-25 20:00N 37°17' W 033°10'0 0.0 17.6
2017-Mar-25 19:00N 37°17' W 033°10'1 1.1 17.6
2017-Mar-25 18:00N 37°17' W 033°08'0 0.0 17.6
2017-Mar-25 17:00N 37°17' W 033°08'2 1.9 17.6
2017-Mar-25 16:00N 37°19' W 033°09'0 0.0 17.6
2017-Mar-25 15:00N 37°19' W 033°09'2 0.8 17.6
2017-Mar-25 13:00N 37°20' W 033°11'1 0.6 17.6
2017-Mar-25 12:00N 37°20' W 033°11'2 1.6 17.6
2017-Mar-25 11:00N 37°21' W 033°13'0 0.0 17.6
2017-Mar-25 10:00N 37°21' W 033°13'1 1.4 17.6
2017-Mar-25 09:00N 37°21' W 033°14'0 0.5 17.6
2017-Mar-25 08:00N 37°21' W 033°15'1 0.6 17.6
2017-Mar-25 07:00N 37°22' W 033°15'1 0.8 17.6
2017-Mar-25 06:00N 37°21' W 033°16'0 0.0 17.6
2017-Mar-25 05:00N 37°21' W 033°16'1 1.1 17.6
2017-Mar-25 04:00N 37°22' W 033°17'1 0.1 17.6
2017-Mar-25 00:00N 37°22' W 033°17'3 2.9 17.7
2017-Mar-24 23:00N 37°22' W 033°20'0 0.0 17.7
2017-Mar-24 22:00N 37°22' W 033°20'1 0.8 17.8
2017-Mar-24 21:00N 37°23' W 033°20'0 0.5 17.8
2017-Mar-24 20:00N 37°23' W 033°20'1 1.0 17.9
2017-Mar-24 19:00N 37°23' W 033°22'0 0.0 17.9
2017-Mar-24 18:00N 37°23' W 033°22'2 1.2 17.9
2017-Mar-24 16:00N 37°23' W 033°25'2 1.6 17.8
2017-Mar-24 15:00N 37°22' W 033°23'2 0.6 17.8
2017-Mar-24 12:00N 37°23' W 033°25'2 1.9 17.6
2017-Mar-24 11:00N 37°23' W 033°27'0 0.5 17.6
2017-Mar-24 10:00N 37°23' W 033°28'0 0.5 17.6
2017-Mar-24 09:00N 37°23' W 033°28'1 1.1 17.6
2017-Mar-24 08:00N 37°23' W 033°29'0 0.5 17.6
2017-Mar-24 07:00N 37°23' W 033°29'1 1.0 17.6
2017-Mar-24 06:00N 37°23' W 033°30'1 0.6 17.6
2017-Mar-24 04:00N 37°22' W 033°31'1 0.4 17.6
2017-Mar-24 01:00N 37°22' W 033°32'1 1.1 17.7
2017-Mar-24 00:00N 37°22' W 033°34'0 0.0 17.8
2017-Mar-23 23:00N 37°22' W 033°34'2 1.9 17.8
2017-Mar-23 22:00N 37°24' W 033°33'2 1.9 17.7
2017-Mar-23 21:00N 37°23' W 033°35'0 0.0 17.7
2017-Mar-23 20:00N 37°23' W 033°35'0 0.5 17.8
2017-Mar-23 19:00N 37°23' W 033°35'1 1.0 17.8
2017-Mar-23 18:00N 37°23' W 033°37'0 0.0 17.9
2017-Mar-23 17:00N 37°23' W 033°37'0 0.0 17.9
2017-Mar-23 16:00N 37°23' W 033°37'0 0.0 17.8
2017-Mar-23 15:00N 37°23' W 033°37'2 0.8 17.8
2017-Mar-23 13:00N 37°22' W 033°38'0 0.5 17.6
2017-Mar-23 12:00N 37°22' W 033°39'0 0.5 17.6
2017-Mar-23 11:00N 37°22' W 033°38'1 0.8 17.6
2017-Mar-23 10:00N 37°23' W 033°38'2 2.5 17.5
2017-Mar-23 09:00N 37°22' W 033°41'0 0.5 17.6
2017-Mar-23 08:00N 37°22' W 033°40'1 0.6 17.6
2017-Mar-23 07:00N 37°22' W 033°40'1 1.0 17.6
2017-Mar-23 06:00N 37°22' W 033°41'1 1.1 17.5
2017-Mar-23 05:00N 37°21' W 033°43'1 1.1 17.5
2017-Mar-23 04:00N 37°22' W 033°41'2 0.5 17.6
2017-Mar-22 23:00N 37°20' W 033°44'1 0.8 17.6
2017-Mar-22 22:00N 37°20' W 033°43'1 1.4 17.6
2017-Mar-22 21:00N 37°20' W 033°45'1 0.8 17.6
2017-Mar-22 20:00N 37°19' W 033°46'0 0.0 17.7
2017-Mar-22 19:00N 37°19' W 033°46'0 0.0 17.7
2017-Mar-22 18:00N 37°19' W 033°46'1 0.4 17.8
2017-Mar-22 16:00N 37°19' W 033°46'1 1.3 17.7
2017-Mar-22 15:00N 37°17' W 033°46'0 0.0 17.6
2017-Mar-22 14:00N 37°17' W 033°46'1 1.2 17.6
2017-Mar-22 13:00N 37°16' W 033°46'0 0.0 17.5
2017-Mar-22 12:00N 37°16' W 033°46'2 2.0 17.4
2017-Mar-22 11:00N 37°17' W 033°43'2 1.9 17.4
2017-Mar-22 10:00N 37°16' W 033°45'1 0.8 17.3
2017-Mar-22 09:00N 37°16' W 033°46'2 2.3 17.3
2017-Mar-22 08:00N 37°15' W 033°43'0 0.0 17.3
2017-Mar-22 07:00N 37°15' W 033°43'0 0.0 17.3
2017-Mar-22 06:00N 37°15' W 033°43'1 0.8 17.3
2017-Mar-22 05:00N 37°14' W 033°43'0 0.0 17.4
2017-Mar-22 04:00N 37°14' W 033°43'1 0.3 17.4
2017-Mar-22 00:00N 37°15' W 033°41'0 0.5 17.4
2017-Mar-21 23:00N 37°15' W 033°41'1 1.2 17.4
2017-Mar-21 22:00N 37°14' W 033°41'0 0.0 17.4
2017-Mar-21 21:00N 37°14' W 033°41'0 0.0 17.4
2017-Mar-21 20:00N 37°14' W 033°41'0 0.0 17.4
2017-Mar-21 19:00N 37°14' W 033°41'1 1.1 17.4
2017-Mar-21 18:00N 37°13' W 033°40'1 1.3 17.4
2017-Mar-21 17:00N 37°14' W 033°40'1 1.3 17.4
2017-Mar-21 16:00N 37°13' W 033°40'1 0.8 17.4
2017-Mar-21 15:00N 37°13' W 033°40'2 1.9 17.4
2017-Mar-21 14:00N 37°13' W 033°38'0 0.0 17.3
2017-Mar-21 13:00N 37°13' W 033°38'0 0.5 17.4
2017-Mar-21 12:00N 37°13' W 033°37'1 0.8 17.4
2017-Mar-21 11:00N 37°13' W 033°38'0 0.0 17.2
2017-Mar-21 10:00N 37°13' W 033°38'0 0.0 17.2
2017-Mar-21 09:00N 37°13' W 033°38'1 1.0 17.1
2017-Mar-21 08:00N 37°13' W 033°39'1 1.0 17.2
2017-Mar-21 07:00N 37°13' W 033°38'1 0.6 17.1
2017-Mar-21 06:00N 37°13' W 033°38'1 1.3 17.1
2017-Mar-21 05:00N 37°11' W 033°37'2 1.5 17.1
2017-Mar-21 04:00N 37°13' W 033°38'2 0.4 17.1
2017-Mar-21 00:00N 37°11' W 033°37'0 0.0 17.1
2017-Mar-20 23:00N 37°11' W 033°37'0 0.0 17.1
2017-Mar-20 22:00N 37°11' W 033°37'1 0.6 17.2
2017-Mar-20 21:00N 37°11' W 033°37'0 0.0 17.2
2017-Mar-20 20:00N 37°11' W 033°37'1 1.2 17.2
2017-Mar-20 19:00N 37°10' W 033°37'0 0.0 17.2
2017-Mar-20 18:00N 37°10' W 033°37'1 1.0 17.2
2017-Mar-20 17:00N 37°10' W 033°38'1 1.2 17.2
2017-Mar-20 16:00N 37°08' W 033°38'0 0.0 17.2
2017-Mar-20 15:00N 37°08' W 033°38'0 0.0 17.1
2017-Mar-20 14:00N 37°08' W 033°38'3 1.3 17.1
2017-Mar-20 12:00N 37°07' W 033°35'0 0.0 17.1
2017-Mar-20 11:00N 37°07' W 033°35'1 0.6 17.1
2017-Mar-20 10:00N 37°07' W 033°35'2 1.0 17.1
2017-Mar-20 08:00N 37°07' W 033°33'3 2.7 17.2
2017-Mar-20 07:00N 37°05' W 033°30'0 0.0 17.2
2017-Mar-20 06:00N 37°05' W 033°30'1 0.1 17.2
2017-Mar-20 00:00N 37°05' W 033°30'0 0.0 17.3
2017-Mar-19 23:00N 37°05' W 033°30'1 1.2 17.3
2017-Mar-19 22:00N 37°04' W 033°30'2 1.6 17.2
2017-Mar-19 21:00N 37°04' W 033°28'1 1.0 17.2
2017-Mar-19 20:00N 37°04' W 033°27'1 0.6 17.2
2017-Mar-19 19:00N 37°04' W 033°27'1 1.1 17.3
2017-Mar-19 18:00N 37°04' W 033°26'0 0.0 17.2
2017-Mar-19 17:00N 37°04' W 033°26'0 0.0 17.1
2017-Mar-19 16:00N 37°04' W 033°26'0 0.0 17.1
2017-Mar-19 15:00N 37°04' W 033°26'2 0.7 17.1
2017-Mar-19 12:00N 37°04' W 033°23'0 0.5 17.0
2017-Mar-19 11:00N 37°04' W 033°23'0 0.0 17.0
2017-Mar-19 10:00N 37°04' W 033°23'1 1.3 17.0
2017-Mar-19 09:00N 37°02' W 033°23'0 0.0 17.0
2017-Mar-19 08:00N 37°02' W 033°23'0 0.0 17.0
2017-Mar-19 07:00N 37°02' W 033°23'0 0.0 17.0
2017-Mar-19 06:00N 37°02' W 033°23'0 0.0 17.0
2017-Mar-19 05:00N 37°02' W 033°23'2 1.6 17.0
2017-Mar-19 04:00N 37°02' W 033°22'2 1.6 17.0
2017-Mar-19 03:00N 37°02' W 033°23'   17.0
Track history (hours):
 
Tides and Currents Weather Stations Pressure Air Temp Water Temp Dewpoint Dewpoint Depression Visibility Wind Speed Wind Dir Waves Ship Positions

Drifting buoy 44906

Last reported at 2017-Mar-29 01:00 UTC. Time now 2017-Mar-29 05:13 UTC.
Position N 37°02' W 033°20'.

Water temperature 16.9 ° C

Date/timePositionNaut miles runAvg speedWind from/ knotsBaromVisibWave heightAir tempDewpointWater temp
2017-Mar-29 01:00N 37°02' W 033°20'0 0.0 16.9
2017-Mar-29 00:00N 37°02' W 033°20'1 0.3 17.0
2017-Mar-28 22:00N 37°01' W 033°20'1 1.1 17.0
2017-Mar-28 21:00N 37°01' W 033°19'0 0.0 17.0
2017-Mar-28 20:00N 37°01' W 033°19'2 2.5 16.9
2017-Mar-28 19:00N 37°01' W 033°16'0 0.0 16.9
2017-Mar-28 17:00N 37°01' W 033°16'1 1.4 17.0
2017-Mar-28 16:00N 37°01' W 033°17'0 0.0 17.0
2017-Mar-28 15:00N 37°01' W 033°17'1 1.3 17.0
2017-Mar-28 14:00N 37°02' W 033°17'0 0.0 17.0
2017-Mar-28 13:00N 37°02' W 033°17'1 1.0 17.0
2017-Mar-28 12:00N 37°02' W 033°18'1 0.8 17.0
2017-Mar-28 11:00N 37°03' W 033°17'0 0.0 17.0
2017-Mar-28 10:00N 37°03' W 033°17'0 0.0 17.0
2017-Mar-28 09:00N 37°03' W 033°17'0 0.0 17.0
2017-Mar-28 08:00N 37°03' W 033°17'1 1.4 17.0
2017-Mar-28 07:00N 37°03' W 033°19'0 0.0 17.1
2017-Mar-28 06:00N 37°03' W 033°19'0 0.0 17.1
2017-Mar-28 05:00N 37°03' W 033°19'0 0.0 17.1
2017-Mar-28 04:00N 37°03' W 033°19'0 0.0 17.1
2017-Mar-27 23:00N 37°03' W 033°19'1 1.1 17.2
2017-Mar-27 22:00N 37°04' W 033°18'0 0.0 17.2
2017-Mar-27 21:00N 37°04' W 033°18'1 1.1 17.2
2017-Mar-27 20:00N 37°04' W 033°17'1 0.6 17.2
2017-Mar-27 19:00N 37°05' W 033°17'0 0.0 17.2
2017-Mar-27 17:00N 37°05' W 033°17'0 0.0 17.2
2017-Mar-27 16:00N 37°05' W 033°17'1 1.3 17.3
2017-Mar-27 15:00N 37°06' W 033°17'0 0.0 17.3
2017-Mar-27 14:00N 37°06' W 033°17'0 0.0 17.3
2017-Mar-27 13:00N 37°06' W 033°17'0 0.0 17.3
2017-Mar-27 12:00N 37°06' W 033°17'0 0.5 17.2
2017-Mar-27 11:00N 37°06' W 033°17'0 0.0 17.2
2017-Mar-27 10:00N 37°06' W 033°17'0 0.5 17.2
2017-Mar-27 09:00N 37°06' W 033°17'1 1.4 17.2
2017-Mar-27 08:00N 37°06' W 033°16'1 1.1 17.2
2017-Mar-27 07:00N 37°07' W 033°14'0 0.5 17.2
2017-Mar-27 06:00N 37°07' W 033°14'0 0.0 17.3
2017-Mar-27 05:00N 37°07' W 033°14'2 2.3 17.3
2017-Mar-27 04:00N 37°08' W 033°16'0 0.1 17.3
2017-Mar-27 00:00N 37°08' W 033°15'1 1.4 17.3
2017-Mar-26 23:00N 37°08' W 033°13'1 0.8 17.4
2017-Mar-26 22:00N 37°08' W 033°14'0 0.5 17.4
2017-Mar-26 21:00N 37°08' W 033°13'1 1.1 17.4
2017-Mar-26 20:00N 37°08' W 033°12'1 0.8 17.4
2017-Mar-26 19:00N 37°09' W 033°13'1 1.1 17.5
2017-Mar-26 18:00N 37°10' W 033°11'1 1.0 17.6
2017-Mar-26 17:00N 37°10' W 033°13'0 0.0 17.6
2017-Mar-26 15:00N 37°10' W 033°13'2 0.9 17.4
2017-Mar-26 13:00N 37°11' W 033°12'0 0.0 17.3
2017-Mar-26 12:00N 37°11' W 033°12'1 0.8 17.3
2017-Mar-26 11:00N 37°11' W 033°11'0 0.0 17.3
2017-Mar-26 10:00N 37°11' W 033°11'1 1.4 17.3
2017-Mar-26 09:00N 37°11' W 033°10'0 0.0 17.3
2017-Mar-26 08:00N 37°11' W 033°10'2 1.9 17.3
2017-Mar-26 07:00N 37°12' W 033°08'0 0.0 17.3
2017-Mar-26 06:00N 37°12' W 033°08'1 1.3 17.3
2017-Mar-26 05:00N 37°13' W 033°07'4 3.7 17.4
2017-Mar-26 04:00N 37°17' W 033°08'0 0.0 17.4
2017-Mar-26 00:00N 37°17' W 033°08'1 1.1 17.6
2017-Mar-25 23:00N 37°17' W 033°10'0 0.0 17.6
2017-Mar-25 22:00N 37°17' W 033°10'0 0.0 17.6
2017-Mar-25 21:00N 37°17' W 033°10'1 0.6 17.6
2017-Mar-25 20:00N 37°17' W 033°10'0 0.0 17.6
2017-Mar-25 19:00N 37°17' W 033°10'1 1.1 17.6
2017-Mar-25 18:00N 37°17' W 033°08'0 0.0 17.6
2017-Mar-25 17:00N 37°17' W 033°08'2 1.9 17.6
2017-Mar-25 16:00N 37°19' W 033°09'0 0.0 17.6
2017-Mar-25 15:00N 37°19' W 033°09'2 0.8 17.6
2017-Mar-25 13:00N 37°20' W 033°11'1 0.6 17.6
2017-Mar-25 12:00N 37°20' W 033°11'2 1.6 17.6
2017-Mar-25 11:00N 37°21' W 033°13'0 0.0 17.6
2017-Mar-25 10:00N 37°21' W 033°13'1 1.4 17.6
2017-Mar-25 09:00N 37°21' W 033°14'0 0.5 17.6
2017-Mar-25 08:00N 37°21' W 033°15'1 0.6 17.6
2017-Mar-25 07:00N 37°22' W 033°15'1 0.8 17.6
2017-Mar-25 06:00N 37°21' W 033°16'0 0.0 17.6
2017-Mar-25 05:00N 37°21' W 033°16'1 1.1 17.6
2017-Mar-25 04:00N 37°22' W 033°17'1 0.1 17.6
2017-Mar-25 00:00N 37°22' W 033°17'3 2.9 17.7
2017-Mar-24 23:00N 37°22' W 033°20'0 0.0 17.7
2017-Mar-24 22:00N 37°22' W 033°20'1 0.8 17.8
2017-Mar-24 21:00N 37°23' W 033°20'0 0.5 17.8
2017-Mar-24 20:00N 37°23' W 033°20'1 1.0 17.9
2017-Mar-24 19:00N 37°23' W 033°22'0 0.0 17.9
2017-Mar-24 18:00N 37°23' W 033°22'2 1.2 17.9
2017-Mar-24 16:00N 37°23' W 033°25'2 1.6 17.8
2017-Mar-24 15:00N 37°22' W 033°23'2 0.6 17.8
2017-Mar-24 12:00N 37°23' W 033°25'2 1.9 17.6
2017-Mar-24 11:00N 37°23' W 033°27'0 0.5 17.6
2017-Mar-24 10:00N 37°23' W 033°28'0 0.5 17.6
2017-Mar-24 09:00N 37°23' W 033°28'1 1.1 17.6
2017-Mar-24 08:00N 37°23' W 033°29'0 0.5 17.6
2017-Mar-24 07:00N 37°23' W 033°29'1 1.0 17.6
2017-Mar-24 06:00N 37°23' W 033°30'1 0.6 17.6
2017-Mar-24 04:00N 37°22' W 033°31'1 0.4 17.6
2017-Mar-24 01:00N 37°22' W 033°32'1 1.1 17.7
2017-Mar-24 00:00N 37°22' W 033°34'0 0.0 17.8
2017-Mar-23 23:00N 37°22' W 033°34'2 1.9 17.8
2017-Mar-23 22:00N 37°24' W 033°33'2 1.9 17.7
2017-Mar-23 21:00N 37°23' W 033°35'0 0.0 17.7
2017-Mar-23 20:00N 37°23' W 033°35'0 0.5 17.8
2017-Mar-23 19:00N 37°23' W 033°35'1 1.0 17.8
2017-Mar-23 18:00N 37°23' W 033°37'0 0.0 17.9
2017-Mar-23 17:00N 37°23' W 033°37'0 0.0 17.9
2017-Mar-23 16:00N 37°23' W 033°37'0 0.0 17.8
2017-Mar-23 15:00N 37°23' W 033°37'2 0.8 17.8
2017-Mar-23 13:00N 37°22' W 033°38'0 0.5 17.6
2017-Mar-23 12:00N 37°22' W 033°39'0 0.5 17.6
2017-Mar-23 11:00N 37°22' W 033°38'1 0.8 17.6
2017-Mar-23 10:00N 37°23' W 033°38'2 2.5 17.5
2017-Mar-23 09:00N 37°22' W 033°41'0 0.5 17.6
2017-Mar-23 08:00N 37°22' W 033°40'1 0.6 17.6
2017-Mar-23 07:00N 37°22' W 033°40'1 1.0 17.6
2017-Mar-23 06:00N 37°22' W 033°41'1 1.1 17.5
2017-Mar-23 05:00N 37°21' W 033°43'1 1.1 17.5
2017-Mar-23 04:00N 37°22' W 033°41'2 0.5 17.6
2017-Mar-22 23:00N 37°20' W 033°44'1 0.8 17.6
2017-Mar-22 22:00N 37°20' W 033°43'1 1.4 17.6
2017-Mar-22 21:00N 37°20' W 033°45'1 0.8 17.6
2017-Mar-22 20:00N 37°19' W 033°46'0 0.0 17.7
2017-Mar-22 19:00N 37°19' W 033°46'0 0.0 17.7
2017-Mar-22 18:00N 37°19' W 033°46'1 0.4 17.8
2017-Mar-22 16:00N 37°19' W 033°46'1 1.3 17.7
2017-Mar-22 15:00N 37°17' W 033°46'0 0.0 17.6
2017-Mar-22 14:00N 37°17' W 033°46'1 1.2 17.6
2017-Mar-22 13:00N 37°16' W 033°46'0 0.0 17.5
2017-Mar-22 12:00N 37°16' W 033°46'2 2.0 17.4
2017-Mar-22 11:00N 37°17' W 033°43'2 1.9 17.4
2017-Mar-22 10:00N 37°16' W 033°45'1 0.8 17.3
2017-Mar-22 09:00N 37°16' W 033°46'2 2.3 17.3
2017-Mar-22 08:00N 37°15' W 033°43'0 0.0 17.3
2017-Mar-22 07:00N 37°15' W 033°43'0 0.0 17.3
2017-Mar-22 06:00N 37°15' W 033°43'1 0.8 17.3
2017-Mar-22 05:00N 37°14' W 033°43'0 0.0 17.4
2017-Mar-22 04:00N 37°14' W 033°43'1 0.3 17.4
2017-Mar-22 00:00N 37°15' W 033°41'0 0.5 17.4
2017-Mar-21 23:00N 37°15' W 033°41'1 1.2 17.4
2017-Mar-21 22:00N 37°14' W 033°41'0 0.0 17.4
2017-Mar-21 21:00N 37°14' W 033°41'0 0.0 17.4
2017-Mar-21 20:00N 37°14' W 033°41'0 0.0 17.4
2017-Mar-21 19:00N 37°14' W 033°41'1 1.1 17.4
2017-Mar-21 18:00N 37°13' W 033°40'1 1.3 17.4
2017-Mar-21 17:00N 37°14' W 033°40'1 1.3 17.4
2017-Mar-21 16:00N 37°13' W 033°40'1 0.8 17.4
2017-Mar-21 15:00N 37°13' W 033°40'2 1.9 17.4
2017-Mar-21 14:00N 37°13' W 033°38'0 0.0 17.3
2017-Mar-21 13:00N 37°13' W 033°38'0 0.5 17.4
2017-Mar-21 12:00N 37°13' W 033°37'1 0.8 17.4
2017-Mar-21 11:00N 37°13' W 033°38'0 0.0 17.2
2017-Mar-21 10:00N 37°13' W 033°38'0 0.0 17.2
2017-Mar-21 09:00N 37°13' W 033°38'1 1.0 17.1
2017-Mar-21 08:00N 37°13' W 033°39'1 1.0 17.2
2017-Mar-21 07:00N 37°13' W 033°38'1 0.6 17.1
2017-Mar-21 06:00N 37°13' W 033°38'1 1.3 17.1
2017-Mar-21 05:00N 37°11' W 033°37'2 1.5 17.1
2017-Mar-21 04:00N 37°13' W 033°38'2 0.4 17.1
2017-Mar-21 00:00N 37°11' W 033°37'0 0.0 17.1
2017-Mar-20 23:00N 37°11' W 033°37'0 0.0 17.1
2017-Mar-20 22:00N 37°11' W 033°37'1 0.6 17.2
2017-Mar-20 21:00N 37°11' W 033°37'0 0.0 17.2
2017-Mar-20 20:00N 37°11' W 033°37'1 1.2 17.2
2017-Mar-20 19:00N 37°10' W 033°37'0 0.0 17.2
2017-Mar-20 18:00N 37°10' W 033°37'1 1.0 17.2
2017-Mar-20 17:00N 37°10' W 033°38'1 1.2 17.2
2017-Mar-20 16:00N 37°08' W 033°38'0 0.0 17.2
2017-Mar-20 15:00N 37°08' W 033°38'0 0.0 17.1
2017-Mar-20 14:00N 37°08' W 033°38'3 1.3 17.1
2017-Mar-20 12:00N 37°07' W 033°35'0 0.0 17.1
2017-Mar-20 11:00N 37°07' W 033°35'1 0.6 17.1
2017-Mar-20 10:00N 37°07' W 033°35'2 1.0 17.1
2017-Mar-20 08:00N 37°07' W 033°33'3 2.7 17.2
2017-Mar-20 07:00N 37°05' W 033°30'0 0.0 17.2
2017-Mar-20 06:00N 37°05' W 033°30'1 0.1 17.2
2017-Mar-20 00:00N 37°05' W 033°30'0 0.0 17.3
2017-Mar-19 23:00N 37°05' W 033°30'1 1.2 17.3
2017-Mar-19 22:00N 37°04' W 033°30'2 1.6 17.2
2017-Mar-19 21:00N 37°04' W 033°28'1 1.0 17.2
2017-Mar-19 20:00N 37°04' W 033°27'1 0.6 17.2
2017-Mar-19 19:00N 37°04' W 033°27'1 1.1 17.3
2017-Mar-19 18:00N 37°04' W 033°26'0 0.0 17.2
2017-Mar-19 17:00N 37°04' W 033°26'0 0.0 17.1
2017-Mar-19 16:00N 37°04' W 033°26'0 0.0 17.1
2017-Mar-19 15:00N 37°04' W 033°26'2 0.7 17.1
2017-Mar-19 12:00N 37°04' W 033°23'0 0.5 17.0
2017-Mar-19 11:00N 37°04' W 033°23'0 0.0 17.0
2017-Mar-19 10:00N 37°04' W 033°23'1 1.3 17.0
2017-Mar-19 09:00N 37°02' W 033°23'0 0.0 17.0
2017-Mar-19 08:00N 37°02' W 033°23'0 0.0 17.0
2017-Mar-19 07:00N 37°02' W 033°23'0 0.0 17.0
2017-Mar-19 06:00N 37°02' W 033°23'0 0.0 17.0
2017-Mar-19 05:00N 37°02' W 033°23'2 1.6 17.0
2017-Mar-19 04:00N 37°02' W 033°22'2 1.6 17.0
2017-Mar-19 03:00N 37°02' W 033°23'   17.0

Dump ship's entire track history